In Rescue
 
Open Full Screen Window  High Contrast Mode
August 09, 2020 8:16 PM EDT
Weather Information
Wind Direction
  ---
Wind Speed
  00 kt (0 mph)
Wind Gust
  00 kt (0 mph)
Altimeter
30.09 in
Visibility
10 SM
Temperature
25° C
77° F
Dewpoint
18° C
64° F
Humidity
65%
1hr Rain Fall
00.00 in.
24hr Rain Fall
00.00 in.
Sky Condition
Clear
VFR

METAR KPOV 100016Z AUTO 00000KT 10SM CLR 25/18 A3009 RMK AO2 T02510183 PWINO

FAA Disclaimer: The data displayed is for advisory purposes only and is not to be used for flight planning or operations.